WetterOnline ( https://www.wetteronline.de )

Wetter aktuell Obernburg

Aktuelles Wetter: Neuhütten/Spessart (340m)

6-stündlich | Neueste Meldungen
Ortszeit Temperatur Wetter
Sa, 05.12. 1:00 -2.1° C bedeckt
Fr, 04.12. 19:00 -0.9° C bewölkt
Fr, 04.12. 13:00 0.3° C wolkig
Fr, 04.12. 7:00 -0.3° C Schneegriesel
Fr, 04.12. 1:00 -0.7° C bedeckt
Do, 03.12. 19:00 -0.3° C bewölkt
Do, 03.12. 13:00 0.4° C bedeckt
Do, 03.12. 7:00 -1.9° C bedeckt
Ortszeit Temperatur Wetter
Sa, 05.12. 1:00 -2.1° C bedeckt
Sa, 05.12. 0:50 -2.1° C bedeckt
Sa, 05.12. 0:40 -2.1° C bedeckt
Sa, 05.12. 0:30 -2.4° C bewölkt
Sa, 05.12. 0:20 -2.4° C bewölkt
Sa, 05.12. 0:10 -2.4° C bedeckt
Sa, 05.12. 0:00 -2.4° C bedeckt
Fr, 04.12. 23:30 -2.2° C bedeckt
Fr, 04.12. 23:00 -2.3° C bedeckt
Fr, 04.12. 22:30 -2.6° C bewölkt
Fr, 04.12. 22:00 -2.2° C bedeckt
Ortszeit Relative Feuchte Sichtweite
Sa, 05.12. 1:00 97% 6 km
Fr, 04.12. 19:00 93% 8 km
Fr, 04.12. 13:00 84% 11 km
Fr, 04.12. 7:00 84% 9 km
Fr, 04.12. 1:00 84% 16 km
Do, 03.12. 19:00 83% 22 km
Do, 03.12. 13:00 88% 10 km
Do, 03.12. 7:00 94% 6 km
Ortszeit Relative Feuchte Sichtweite
Sa, 05.12. 1:00 97% 6 km
Sa, 05.12. 0:50 97% -
Sa, 05.12. 0:40 96% -
Sa, 05.12. 0:30 98% 4.3 km
Sa, 05.12. 0:20 98% -
Sa, 05.12. 0:10 96% -
Sa, 05.12. 0:00 96% 7 km
Fr, 04.12. 23:30 96% 6 km
Fr, 04.12. 23:00 95% 7 km
Fr, 04.12. 22:30 99% 7 km
Fr, 04.12. 22:00 99% 1.8 km
Ortszeit Niederschlagsmenge Niederschlagsart
Sa, 05.12. 1:00 0.0 l/m2 in 6 Std. -
Fr, 04.12. 19:00 0.2 l/m2 in 12 Std. -
Fr, 04.12. 13:00 0.2 l/m2 in 6 Std. Schnee, Regen
Fr, 04.12. 7:00 0.4 l/m2 in 12 Std. Schnee, Regen
Fr, 04.12. 1:00 0.0 l/m2 in 6 Std. -
Do, 03.12. 19:00 0.1 l/m2 in 12 Std. -
Do, 03.12. 13:00 0.1 l/m2 in 6 Std. Schnee, Sprühregen
Do, 03.12. 7:00 0.1 l/m2 in 12 Std. Schnee, Sprühregen
Ortszeit Niederschlagsmenge Niederschlagsart
Sa, 05.12. 1:00 0.0 l/m2 in 1 Std. -
Sa, 05.12. 0:50 keine Meldung -
Sa, 05.12. 0:40 keine Meldung -
Sa, 05.12. 0:30 0.0 l/m2 in 1 Std. -
Sa, 05.12. 0:20 keine Meldung -
Sa, 05.12. 0:10 keine Meldung -
Sa, 05.12. 0:00 0.0 l/m2 in 1 Std. -
Fr, 04.12. 23:30 0.0 l/m2 in 1 Std. -
Fr, 04.12. 23:00 0.0 l/m2 in 1 Std. -
Fr, 04.12. 22:30 0.0 l/m2 in 1 Std. -
Fr, 04.12. 22:00 0.0 l/m2 in 1 Std. -
Ortszeit Stärke Spitze Richtung
km/h Bft. km/h Grad Sektor
Sa, 05.12. 1:00 0 0 11 - -
Fr, 04.12. 19:00 4 1 22 80° O
Fr, 04.12. 13:00 9 2 31 70° O
Fr, 04.12. 7:00 18 3 32 170° S
Fr, 04.12. 1:00 7 2 26 90° O
Do, 03.12. 19:00 13 3 22 150° SO
Do, 03.12. 13:00 9 2 15 200° S
Do, 03.12. 7:00 6 1 17 220° SW
Ortszeit Stärke Spitze Richtung
km/h Bft. km/h Grad Sektor
Sa, 05.12. 1:00 0 0 7 - -
Sa, 05.12. 0:50 0 0 - 200° S
Sa, 05.12. 0:40 4 1 - 200° S
Sa, 05.12. 0:30 2 1 6 220° SW
Sa, 05.12. 0:20 2 1 - 220° SW
Sa, 05.12. 0:10 4 1 - 200° S
Sa, 05.12. 0:00 4 1 7 120° SO
Fr, 04.12. 23:30 4 1 7 330° NW
Fr, 04.12. 23:00 4 1 11 210° SW
Fr, 04.12. 22:30 7 2 11 180° S
Fr, 04.12. 22:00 4 1 7 110° O
Ortszeit Untergrenze Bedeckung Gattung
total tief tief mittel hoch
Sa, 05.12. 1:00 1500 m 8/8 8/8 - - -
Fr, 04.12. 19:00 2400 m 8/8 4/8 - - -
Fr, 04.12. 13:00 2700 m 6/8 6/8 - - -
Fr, 04.12. 7:00 990 m 8/8 8/8 - - -
Fr, 04.12. 1:00 1800 m 8/8 8/8 - - -
Do, 03.12. 19:00 1500 m 7/8 7/8 - - -
Do, 03.12. 13:00 840 m 8/8 8/8 - - -
Do, 03.12. 7:00 150 m 8/8 8/8 - - -
Ortszeit Bedeckungsgrad in Achtel und Wolkenuntergrenze
Sa, 05.12. 1:00 4(1500m) 7(2100m) 8(2400m)
Sa, 05.12. 0:50 4(1500m) 7(2100m) 8(2400m)
Sa, 05.12. 0:40 3(1800m) 6(2100m) 8(2700m)
Sa, 05.12. 0:30 5(2700m) 8(3600m) 8(3300m)
Sa, 05.12. 0:20 5(2700m) 8(3600m)
Sa, 05.12. 0:10 7(3300m) 8(4200m)
Sa, 05.12. 0:00 7(3900m) 8(4500m)
Fr, 04.12. 23:30 6(3900m) 8(4500m)
Fr, 04.12. 23:00 5(5100m) 7(5700m) 8(6300m)
Fr, 04.12. 22:30 1(5400m) 7(6600m) 8(7200m)
Fr, 04.12. 22:00 4(5400m) 8(6000m) 8(6600m)
Ortszeit Luftdruck NN (hPa) Tendenz (hPa in 3 Std.)
Sa, 05.12. 1:00 994 + 0,7
Fr, 04.12. 19:00 993 + 0,3
Fr, 04.12. 13:00 992 - 0,2
Fr, 04.12. 7:00 992 - 0,5
Fr, 04.12. 1:00 995 - 2,2
Do, 03.12. 19:00 1000 - 2,6
Do, 03.12. 13:00 1006 - 2,4
Do, 03.12. 7:00 1010 - 1,2
Ortszeit Luftdruck NN (hPa) Tendenz (hPa in 3 Std.)
Sa, 05.12. 1:00 994 + 0,7
Sa, 05.12. 0:50 994 keine Meldung
Sa, 05.12. 0:40 994 keine Meldung
Sa, 05.12. 0:30 993 - 0,2
Sa, 05.12. 0:20 993 keine Meldung
Sa, 05.12. 0:10 993 keine Meldung
Sa, 05.12. 0:00 993 + 0,2
Fr, 04.12. 23:30 993 + 0,4
Fr, 04.12. 23:00 994 + 0,5
Fr, 04.12. 22:30 994 + 0,7
Fr, 04.12. 22:00 993 0,0
Ortszeit Schneehöhe (cm)
Sa, 05.12. 1:00 0
Fr, 04.12. 19:00 0
Fr, 04.12. 13:00 0
Fr, 04.12. 7:00 1
Fr, 04.12. 1:00 1
Do, 03.12. 19:00 1
Do, 03.12. 13:00 -
Do, 03.12. 7:00 2
Ortszeit Schneehöhe (cm)
Sa, 05.12. 1:00 0
Sa, 05.12. 0:50 0
Sa, 05.12. 0:40 0
Sa, 05.12. 0:30 0
Sa, 05.12. 0:20 0
Sa, 05.12. 0:10 0
Sa, 05.12. 0:00 0
Fr, 04.12. 23:30 0
Fr, 04.12. 23:00 0
Fr, 04.12. 22:30 0
Fr, 04.12. 22:00 0
Link zu dieser Seite / Seite empfehlen

Das Wetter in ...